Time;durP1;ratioP1;P1;durP2;ratioP2;P2;SDS_P1;SDS_P2;PMS_P1;PMS_P2;Temp;Humidity;BMP_temperature;BMP_pressure;BME280_temperature;BME280_humidity;BME280_pressure;Samples;Min_cycle;Max_cycle;Signal;HPM_P1;HPM_P2
2020/12/01 05:02:26;;;;;;;42.00;22.53;;;2.70;99.90;;;;;;5511352;23;20498;-62
2020/12/01 05:05:19;;;;;;;43.00;21.63;;;2.70;99.90;;;;;;4977805;28;20476;-62
2020/12/01 05:08:06;;;;;;;40.57;21.83;;;2.70;99.90;;;;;;4976355;28;20996;-63
2020/12/01 05:10:35;;;;;;;44.07;21.90;;;2.70;99.90;;;;;;4977683;28;20987;-62
2020/12/01 05:13:14;;;;;;;47.90;24.67;;;2.70;99.90;;;;;;4977796;28;20523;-63
2020/12/01 05:15:45;;;;;;;40.70;22.17;;;2.70;99.90;;;;;;4977641;28;20435;-63
2020/12/01 05:18:17;;;;;;;41.03;23.23;;;2.70;99.90;;;;;;4977557;28;20431;-62
2020/12/01 05:20:47;;;;;;;45.10;23.60;;;2.80;99.90;;;;;;4978150;28;20909;-64
2020/12/01 05:23:15;;;;;;;41.50;24.17;;;2.80;99.90;;;;;;4977381;28;20446;-63
2020/12/01 05:25:41;;;;;;;40.90;22.00;;;2.80;99.90;;;;;;4978036;28;20457;-62
2020/12/01 05:28:11;;;;;;;41.03;22.57;;;2.80;99.90;;;;;;4977133;28;20450;-63
2020/12/01 05:30:38;;;;;;;44.50;24.60;;;2.80;99.90;;;;;;4977387;28;20471;-63
2020/12/01 05:33:22;;;;;;;46.87;25.30;;;2.80;99.90;;;;;;4977605;28;20454;-62
2020/12/01 05:36:14;;;;;;;43.17;24.30;;;2.80;99.90;;;;;;4977251;28;20442;-63
2020/12/01 05:38:41;;;;;;;44.97;24.03;;;2.90;99.90;;;;;;4977213;28;20505;-62
2020/12/01 05:41:18;;;;;;;42.07;24.47;;;2.80;99.90;;;;;;4976787;28;20847;-62
2020/12/01 05:43:45;;;;;;;44.27;23.73;;;2.80;99.90;;;;;;4977126;28;20442;-62
2020/12/01 05:46:17;;;;;;;42.90;23.57;;;2.80;99.90;;;;;;4977366;28;20450;-64
2020/12/01 05:48:59;;;;;;;44.80;24.00;;;2.80;99.90;;;;;;4977029;28;20446;-62
2020/12/01 05:51:34;;;;;;;43.70;23.90;;;2.90;99.90;;;;;;4976664;28;20525;-63
2020/12/01 05:54:00;;;;;;;39.97;23.40;;;2.90;99.90;;;;;;4977248;28;20443;-62
2020/12/01 05:56:27;;;;;;;43.37;23.10;;;2.90;99.90;;;;;;4977013;28;20450;-64
2020/12/01 05:59:00;;;;;;;43.37;23.53;;;2.80;99.90;;;;;;4976571;28;20466;-63
2020/12/01 06:01:27;;;;;;;46.53;23.60;;;2.90;99.90;;;;;;4976795;28;20490;-61
2020/12/01 06:04:05;;;;;;;40.77;23.10;;;2.90;99.90;;;;;;4976418;28;20454;-63
2020/12/01 06:06:46;;;;;;;48.77;23.83;;;2.90;99.90;;;;;;4976718;28;20439;-63
2020/12/01 06:09:27;;;;;;;41.60;23.10;;;2.90;99.90;;;;;;4976655;28;20882;-62
2020/12/01 06:11:58;;;;;;;34.57;19.90;;;2.80;99.90;;;;;;4976714;28;20482;-63
2020/12/01 06:14:31;;;;;;;38.10;23.57;;;3.30;99.90;;;;;;4975800;28;20446;-63
2020/12/01 06:17:04;;;;;;;30.30;19.63;;;3.90;99.90;;;;;;4976083;28;20442;-64
2020/12/01 06:19:36;;;;;;;26.13;18.43;;;4.30;99.90;;;;;;4976268;28;20435;-62
2020/12/01 06:22:36;;;;;;;25.37;17.57;;;4.80;99.90;;;;;;4975478;28;21145;-63
2020/12/01 06:25:36;;;;;;;24.70;18.03;;;4.90;99.90;;;;;;4975761;28;20439;-63
2020/12/01 06:28:38;;;;;;;27.80;19.30;;;4.80;99.90;;;;;;4970826;28;20453;-63
2020/12/01 06:31:37;;;;;;;32.40;18.97;;;4.70;99.90;;;;;;4976173;28;20470;-62
2020/12/01 06:34:22;;;;;;;29.97;19.20;;;4.60;99.90;;;;;;4963166;28;20451;-63
2020/12/01 06:37:22;;;;;;;27.90;18.23;;;4.30;99.90;;;;;;4975539;28;20435;-64
2020/12/01 06:40:10;;;;;;;32.97;19.30;;;4.10;99.90;;;;;;4975839;28;20506;-63
2020/12/01 06:42:39;;;;;;;32.53;20.30;;;4.00;99.90;;;;;;4975622;28;20539;-64
2020/12/01 06:45:20;;;;;;;35.87;20.40;;;3.90;99.90;;;;;;4975597;28;20462;-64
2020/12/01 06:47:49;;;;;;;34.07;20.50;;;3.80;99.90;;;;;;4975555;28;20446;-64
2020/12/01 06:50:19;;;;;;;39.77;22.43;;;3.80;99.90;;;;;;4975373;28;20457;-63
2020/12/01 06:52:55;;;;;;;36.27;21.23;;;3.70;99.90;;;;;;4975172;28;20454;-63
2020/12/01 06:55:52;;;;;;;37.13;20.50;;;3.70;99.90;;;;;;4975080;28;20928;-64
2020/12/01 06:58:32;;;;;;;35.77;19.90;;;3.60;99.90;;;;;;4975454;28;20462;-62
2020/12/01 07:01:26;;;;;;;36.33;21.47;;;3.60;99.90;;;;;;4977688;28;20490;-63
2020/12/01 07:04:20;;;;;;;34.80;19.90;;;3.50;99.90;;;;;;4975806;28;20439;-63
2020/12/01 07:06:49;;;;;;;47.30;19.97;;;3.40;99.90;;;;;;4976402;28;20435;-62
2020/12/01 07:09:19;;;;;;;45.73;22.10;;;3.30;99.90;;;;;;4976055;28;20451;-63
2020/12/01 07:12:04;;;;;;;36.30;20.27;;;3.20;99.90;;;;;;4978884;28;20494;-65
2020/12/01 07:14:39;;;;;;;38.23;20.60;;;3.20;99.90;;;;;;4977437;28;20443;-63
2020/12/01 07:17:26;;;;;;;36.43;21.40;;;3.30;99.90;;;;;;4975101;28;20485;-63
2020/12/01 07:19:55;;;;;;;37.63;20.50;;;3.20;99.90;;;;;;4974910;28;20445;-63
2020/12/01 07:22:30;;;;;;;39.10;21.40;;;3.20;99.90;;;;;;4974725;28;20494;-64
2020/12/01 07:25:08;;;;;;;41.70;21.87;;;3.20;99.90;;;;;;4974890;28;20450;-63
2020/12/01 07:27:45;;;;;;;36.97;21.00;;;3.20;99.90;;;;;;4975376;28;20434;-64
2020/12/01 07:30:16;;;;;;;46.13;21.53;;;3.20;99.90;;;;;;4975320;28;20443;-64
2020/12/01 07:32:49;;;;;;;45.50;23.37;;;3.20;99.90;;;;;;4975040;28;20439;-64
2020/12/01 07:35:31;;;;;;;47.00;22.83;;;3.20;99.90;;;;;;4974921;28;20439;-63
2020/12/01 07:38:11;;;;;;;45.03;22.80;;;3.20;99.90;;;;;;4974777;28;20435;-63
2020/12/01 07:40:47;;;;;;;44.40;23.07;;;3.20;99.90;;;;;;4974686;28;20469;-62
2020/12/01 07:43:15;;;;;;;43.97;24.00;;;3.20;99.90;;;;;;4974694;28;20442;-62
2020/12/01 07:45:42;;;;;;;47.57;24.60;;;3.20;99.90;;;;;;4974656;28;20455;-63
2020/12/01 07:48:13;;;;;;;51.77;24.10;;;3.20;99.90;;;;;;4974630;28;20454;-63
2020/12/01 07:50:39;;;;;;;40.77;22.30;;;3.20;99.90;;;;;;4974549;28;20474;-63
2020/12/01 07:53:10;;;;;;;48.50;23.47;;;3.20;99.90;;;;;;4974406;28;20454;-63
2020/12/01 07:55:47;;;;;;;51.57;25.20;;;3.20;99.90;;;;;;4974614;28;20831;-63
2020/12/01 07:58:16;;;;;;;44.83;23.87;;;3.20;99.90;;;;;;4974392;28;20439;-63
2020/12/01 08:00:47;;;;;;;51.10;24.70;;;3.20;99.90;;;;;;4973970;28;20845;-63
2020/12/01 08:03:16;;;;;;;49.33;24.87;;;3.30;99.90;;;;;;4974550;28;20839;-63
2020/12/01 08:05:43;;;;;;;45.43;24.90;;;3.40;99.90;;;;;;4974429;28;20953;-63
2020/12/01 08:08:14;;;;;;;47.10;24.50;;;3.60;99.90;;;;;;4974941;28;20462;-63
2020/12/01 08:10:41;;;;;;;36.00;21.50;;;3.70;99.90;;;;;;4974588;28;20475;-62
2020/12/01 08:13:07;;;;;;;42.07;22.90;;;3.90;99.90;;;;;;4974636;28;20458;-62
2020/12/01 08:15:34;;;;;;;37.30;21.17;;;3.90;99.90;;;;;;4974895;28;20458;-62
2020/12/01 08:18:04;;;;;;;34.63;22.03;;;3.90;99.90;;;;;;4974733;28;20446;-63
2020/12/01 08:20:30;;;;;;;38.00;22.00;;;3.90;99.90;;;;;;4974228;28;20969;-63
2020/12/01 08:23:04;;;;;;;39.67;22.60;;;3.90;99.90;;;;;;4974708;28;20454;-63
2020/12/01 08:25:31;;;;;;;39.87;23.07;;;3.80;99.90;;;;;;4974557;28;20434;-63
2020/12/01 08:28:08;;;;;;;48.13;26.43;;;3.70;99.90;;;;;;4977339;28;20439;-62
2020/12/01 08:30:50;;;;;;;47.97;25.63;;;3.70;99.90;;;;;;4976069;28;20478;-63
2020/12/01 08:33:28;;;;;;;44.70;24.17;;;3.80;99.90;;;;;;4977491;28;20517;-61
2020/12/01 08:36:04;;;;;;;43.33;24.03;;;3.70;99.90;;;;;;4977804;28;20443;-63
2020/12/01 08:38:48;;;;;;;40.37;23.47;;;3.70;99.90;;;;;;4977626;28;20434;-62
2020/12/01 08:41:22;;;;;;;43.37;24.37;;;3.70;99.90;;;;;;4977094;28;20553;-61
2020/12/01 08:43:52;;;;;;;40.30;23.20;;;3.60;99.90;;;;;;4980694;28;20909;-62
2020/12/01 08:46:21;;;;;;;40.50;23.70;;;3.60;99.90;;;;;;4981742;28;20468;-62
2020/12/01 08:48:51;;;;;;;34.40;22.10;;;3.60;99.90;;;;;;4982153;28;20512;-62
2020/12/01 08:51:27;;;;;;;34.97;21.50;;;3.60;99.90;;;;;;4980951;28;20467;-62
2020/12/01 08:54:04;;;;;;;34.20;19.70;;;3.60;99.90;;;;;;4981353;28;20431;-61
2020/12/01 08:56:43;;;;;;;24.17;16.90;;;3.50;99.90;;;;;;4981065;28;20466;-62
2020/12/01 08:59:14;;;;;;;16.50;11.37;;;3.50;99.90;;;;;;4981508;28;20444;-62
2020/12/01 09:01:43;;;;;;;15.67;11.10;;;3.50;99.90;;;;;;4980779;28;20597;-62
2020/12/01 09:04:22;;;;;;;17.60;12.77;;;3.50;99.90;;;;;;4981139;28;20841;-62
2020/12/01 09:06:50;;;;;;;17.07;12.17;;;3.50;99.90;;;;;;4981156;28;20439;-62
2020/12/01 09:09:21;;;;;;;19.20;11.77;;;3.60;99.90;;;;;;4981275;28;20517;-62
2020/12/01 09:14:53;;;;;;;19.10;12.87;;;3.70;99.90;;;;;;4979522;28;20431;-62
2020/12/01 09:17:32;;;;;;;27.17;14.73;;;3.70;99.90;;;;;;4979203;28;20442;-63
2020/12/01 09:20:22;;;;;;;22.57;14.87;;;3.70;99.90;;;;;;4979142;28;20435;-63
2020/12/01 09:22:48;;;;;;;24.20;14.27;;;3.70;99.90;;;;;;4978802;28;21065;-62
2020/12/01 09:25:19;;;;;;;20.93;15.33;;;3.70;99.90;;;;;;4978650;28;20466;-62
2020/12/01 09:27:47;;;;;;;20.83;13.33;;;3.60;99.90;;;;;;4979094;28;20439;-64
2020/12/01 09:30:25;;;;;;;19.57;13.57;;;3.70;99.90;;;;;;4977485;28;20456;-63
2020/12/01 09:32:52;;;;;;;22.87;14.20;;;3.70;99.90;;;;;;4978187;28;20435;-62
2020/12/01 09:35:19;;;;;;;22.20;13.50;;;3.70;99.90;;;;;;4977886;28;20469;-62
2020/12/01 09:37:45;;;;;;;15.70;12.33;;;3.80;99.90;;;;;;4977400;28;20473;-63
2020/12/01 09:40:11;;;;;;;21.57;13.77;;;3.80;99.90;;;;;;4977537;28;20457;-63
2020/12/01 09:42:39;;;;;;;17.00;13.33;;;3.80;99.90;;;;;;4977100;28;20478;-64
2020/12/01 09:45:17;;;;;;;20.07;12.70;;;3.90;99.90;;;;;;4977238;28;20450;-63
2020/12/01 09:47:45;;;;;;;15.10;11.30;;;3.90;99.90;;;;;;4977046;28;20538;-63
2020/12/01 09:50:14;;;;;;;17.63;12.30;;;3.90;99.90;;;;;;4976819;28;20498;-63
2020/12/01 09:52:57;;;;;;;15.67;11.90;;;4.00;99.90;;;;;;4976403;28;20446;-63
2020/12/01 09:58:13;;;;;;;15.70;11.70;;;4.10;99.90;;;;;;4976388;28;20571;-62
2020/12/01 10:01:01;;;;;;;16.90;12.17;;;4.10;99.90;;;;;;4976518;28;20561;-63
2020/12/01 10:09:12;;;;;;;14.97;12.13;;;3.70;99.90;;;;;;4977020;28;20435;-63
2020/12/01 10:36:27;;;;;;;20.20;14.07;;;4.00;99.90;;;;;;4935514;29;20461;-63
2020/12/01 10:38:54;;;;;;;19.83;14.87;;;4.00;99.90;;;;;;4935039;29;20437;-62
2020/12/01 10:41:28;;;;;;;24.53;16.30;;;3.90;99.90;;;;;;4952584;28;20486;-62
2020/12/01 10:43:54;;;;;;;22.10;15.83;;;3.90;99.90;;;;;;4976140;28;20447;-62
2020/12/01 10:46:20;;;;;;;21.23;14.00;;;3.90;99.90;;;;;;4976033;28;20454;-63
2020/12/01 10:48:46;;;;;;;21.57;15.07;;;3.80;99.90;;;;;;4975910;28;20454;-63
2020/12/01 10:51:12;;;;;;;20.67;13.70;;;3.80;99.90;;;;;;4975401;28;20471;-62
2020/12/01 10:53:39;;;;;;;16.90;13.23;;;3.80;99.90;;;;;;4975955;28;20454;-64
2020/12/01 10:56:05;;;;;;;18.30;12.87;;;3.80;99.90;;;;;;4975625;28;20439;-63
2020/12/01 10:58:32;;;;;;;20.47;12.47;;;3.80;99.90;;;;;;4975225;28;20950;-63
2020/12/01 11:01:00;;;;;;;17.60;13.40;;;3.90;99.90;;;;;;4975491;28;20486;-63
2020/12/01 11:03:26;;;;;;;18.80;13.07;;;3.80;99.90;;;;;;4975524;28;20455;-63
2020/12/01 11:05:52;;;;;;;19.77;13.37;;;3.90;99.90;;;;;;4974571;28;20457;-63
2020/12/01 11:08:18;;;;;;;17.20;12.73;;;3.90;99.90;;;;;;4975469;28;20917;-63
2020/12/01 11:10:44;;;;;;;17.00;12.63;;;3.90;99.90;;;;;;4975744;28;20479;-63
2020/12/01 11:13:11;;;;;;;18.20;12.57;;;3.90;99.90;;;;;;4975532;28;20454;-63
2020/12/01 11:15:38;;;;;;;23.93;15.07;;;3.90;99.90;;;;;;4975888;28;20443;-62
2020/12/01 11:18:06;;;;;;;18.20;13.00;;;3.90;99.90;;;;;;4975253;28;20890;-63
2020/12/01 11:20:32;;;;;;;19.77;14.93;;;3.80;99.90;;;;;;4975801;28;20834;-63
2020/12/01 11:22:59;;;;;;;21.47;16.03;;;3.70;99.90;;;;;;4975461;28;20811;-63
2020/12/01 11:25:25;;;;;;;24.20;15.70;;;3.70;99.90;;;;;;4975281;28;20950;-62
2020/12/01 11:27:51;;;;;;;22.70;15.43;;;3.70;99.90;;;;;;4975350;28;20438;-63
2020/12/01 11:30:20;;;;;;;23.60;14.97;;;3.70;99.90;;;;;;4975880;28;20463;-62
2020/12/01 11:32:47;;;;;;;24.07;15.20;;;3.80;99.90;;;;;;4975104;28;20505;-63
2020/12/01 11:35:14;;;;;;;24.30;16.90;;;3.70;99.90;;;;;;4974578;28;20946;-63
2020/12/01 11:37:41;;;;;;;26.97;16.20;;;3.80;99.90;;;;;;4991544;28;20458;-63
2020/12/01 11:40:08;;;;;;;26.70;16.77;;;3.80;99.90;;;;;;4995245;28;20454;-62
2020/12/01 11:42:35;;;;;;;30.13;17.57;;;3.90;99.90;;;;;;4995335;28;20470;-64
2020/12/01 11:45:01;;;;;;;27.83;17.20;;;3.90;99.90;;;;;;4994901;28;20439;-63
2020/12/01 11:47:27;;;;;;;23.07;17.00;;;4.00;99.90;;;;;;4988806;28;20462;-64
2020/12/01 11:49:54;;;;;;;27.00;17.40;;;4.00;99.90;;;;;;4977647;28;20458;-63
2020/12/01 11:52:20;;;;;;;28.00;17.13;;;4.10;99.90;;;;;;4978099;28;21005;-63
2020/12/01 11:54:46;;;;;;;29.00;18.80;;;4.10;99.90;;;;;;4975892;28;20446;-64
2020/12/01 11:57:13;;;;;;;33.97;19.27;;;4.00;99.90;;;;;;4975255;28;20790;-62
2020/12/01 11:59:39;;;;;;;31.93;19.47;;;3.90;99.90;;;;;;4975790;28;20462;-63
2020/12/01 12:02:05;;;;;;;26.50;18.77;;;4.00;99.90;;;;;;4974947;28;20487;-63
2020/12/01 12:04:31;;;;;;;29.70;17.60;;;3.90;99.90;;;;;;4975207;28;20459;-63
2020/12/01 12:07:00;;;;;;;29.30;19.10;;;4.00;99.90;;;;;;4974998;28;20462;-62
2020/12/01 12:09:26;;;;;;;33.57;19.87;;;3.90;99.90;;;;;;4975105;28;20454;-64
2020/12/01 12:11:52;;;;;;;28.57;19.03;;;3.90;99.90;;;;;;4974803;28;21008;-65
2020/12/01 12:14:18;;;;;;;29.97;19.23;;;3.90;99.90;;;;;;4976377;28;20462;-66
2020/12/01 12:16:45;;;;;;;29.40;19.20;;;3.90;99.90;;;;;;4976675;28;20980;-63
2020/12/01 12:19:11;;;;;;;31.77;20.03;;;3.70;99.90;;;;;;4978774;28;20461;-63
2020/12/01 12:21:37;;;;;;;38.87;21.00;;;3.80;99.90;;;;;;4977977;28;20995;-63
2020/12/01 12:24:04;;;;;;;36.17;20.30;;;3.80;99.90;;;;;;4979249;28;20821;-63
2020/12/01 12:26:30;;;;;;;40.27;22.23;;;3.70;99.90;;;;;;4979095;28;20973;-63
2020/12/01 12:28:56;;;;;;;37.17;19.63;;;3.60;99.90;;;;;;4978419;28;20461;-63
2020/12/01 12:31:23;;;;;;;38.67;22.30;;;3.70;99.90;;;;;;4982190;28;20470;-62
2020/12/01 12:33:49;;;;;;;49.17;21.90;;;3.70;99.90;;;;;;4978574;28;20446;-63
2020/12/01 12:36:15;;;;;;;36.70;21.70;;;3.70;99.90;;;;;;4978989;28;20451;-63
2020/12/01 12:38:42;;;;;;;42.83;22.87;;;3.70;99.90;;;;;;4979119;28;20450;-63
2020/12/01 12:41:09;;;;;;;36.33;21.53;;;3.80;99.90;;;;;;4978648;28;20478;-63
2020/12/01 12:43:35;;;;;;;41.30;21.37;;;3.80;99.90;;;;;;4978644;28;20465;-63
2020/12/01 12:46:01;;;;;;;40.00;22.00;;;3.90;99.90;;;;;;4978383;28;20461;-63
2020/12/01 12:48:29;;;;;;;36.60;21.37;;;3.90;99.90;;;;;;4977921;28;20457;-62
2020/12/01 12:50:55;;;;;;;40.23;22.60;;;4.00;99.90;;;;;;4977869;28;20502;-64
2020/12/01 12:53:22;;;;;;;32.67;21.57;;;4.00;99.90;;;;;;4980705;28;20458;-63
2020/12/01 12:55:48;;;;;;;35.27;20.97;;;4.10;99.90;;;;;;4977799;28;20817;-62
2020/12/01 12:58:16;;;;;;;39.27;22.47;;;4.10;99.90;;;;;;4978367;28;20467;-64
2020/12/01 13:00:42;;;;;;;35.20;20.57;;;4.10;99.90;;;;;;4977703;28;20481;-63
2020/12/01 13:03:08;;;;;;;31.40;20.87;;;4.10;99.90;;;;;;4977839;28;20497;-64
2020/12/01 13:05:35;;;;;;;36.00;22.43;;;4.10;99.90;;;;;;4978269;28;20460;-63
2020/12/01 13:08:01;;;;;;;30.80;20.60;;;4.00;99.90;;;;;;4977821;28;20434;-64
2020/12/01 13:10:27;;;;;;;38.13;21.90;;;4.10;99.90;;;;;;4977462;28;20458;-63
2020/12/01 13:12:53;;;;;;;31.70;20.17;;;4.20;99.90;;;;;;4977379;28;20457;-64
2020/12/01 13:15:21;;;;;;;31.67;19.57;;;4.20;99.90;;;;;;4977389;28;20462;-63
2020/12/01 13:17:47;;;;;;;28.47;19.30;;;4.10;99.90;;;;;;4977632;28;20454;-64
2020/12/01 13:20:16;;;;;;;32.70;21.23;;;4.00;99.90;;;;;;4977251;28;20462;-63
2020/12/01 13:22:42;;;;;;;32.60;21.10;;;3.90;99.90;;;;;;4977362;28;20474;-64
2020/12/01 13:25:08;;;;;;;33.83;21.37;;;3.90;99.90;;;;;;4977372;28;20446;-64
2020/12/01 13:27:35;;;;;;;30.83;20.83;;;4.00;99.90;;;;;;4976459;28;20459;-62
2020/12/01 13:30:01;;;;;;;34.80;21.27;;;4.00;99.90;;;;;;4976863;28;20457;-65
2020/12/01 13:32:28;;;;;;;28.37;19.70;;;4.00;99.90;;;;;;4976962;28;20477;-64
2020/12/01 13:34:54;;;;;;;42.27;24.20;;;4.10;99.90;;;;;;4977207;28;20455;-63
2020/12/01 13:37:21;;;;;;;37.67;24.23;;;4.10;99.90;;;;;;4977011;28;20455;-63
2020/12/01 13:39:47;;;;;;;38.20;21.70;;;4.10;99.90;;;;;;4977008;28;20499;-63
2020/12/01 13:42:13;;;;;;;39.80;22.47;;;4.00;99.90;;;;;;4977011;28;20482;-63
2020/12/01 13:44:40;;;;;;;39.07;22.03;;;4.00;99.90;;;;;;4976413;28;20869;-64
2020/12/01 13:47:06;;;;;;;37.73;21.53;;;4.00;99.90;;;;;;4976750;28;20451;-65
2020/12/01 13:49:33;;;;;;;43.87;23.73;;;4.10;99.90;;;;;;4978879;28;20950;-63
2020/12/01 13:51:59;;;;;;;38.20;21.97;;;4.00;99.90;;;;;;4978567;28;20478;-63
2020/12/01 13:54:26;;;;;;;32.13;19.63;;;4.00;99.90;;;;;;4977468;28;20477;-63
2020/12/01 13:56:53;;;;;;;34.03;20.80;;;4.10;99.90;;;;;;4976724;28;20462;-63
2020/12/01 13:59:19;;;;;;;37.63;22.27;;;4.00;99.90;;;;;;4976335;28;20801;-64
2020/12/01 14:01:45;;;;;;;33.07;20.83;;;4.00;99.90;;;;;;4976129;28;20486;-63
2020/12/01 14:04:12;;;;;;;36.90;23.30;;;4.10;99.90;;;;;;4976654;28;20450;-63
2020/12/01 14:06:39;;;;;;;36.90;21.33;;;4.10;99.90;;;;;;4976543;28;20447;-64
2020/12/01 14:09:05;;;;;;;31.40;22.00;;;4.10;99.90;;;;;;4976358;28;20482;-64
2020/12/01 14:11:31;;;;;;;31.77;20.70;;;4.10;99.90;;;;;;4976290;28;20479;-63
2020/12/01 14:13:58;;;;;;;31.47;20.70;;;4.10;99.90;;;;;;4976331;28;20458;-64
2020/12/01 14:16:24;;;;;;;37.40;22.67;;;4.10;99.90;;;;;;4976467;28;20462;-62
2020/12/01 14:18:50;;;;;;;37.50;22.30;;;4.10;99.90;;;;;;4976002;28;20457;-63
2020/12/01 14:21:16;;;;;;;34.93;21.63;;;4.00;99.90;;;;;;4975806;28;20471;-62
2020/12/01 14:23:44;;;;;;;33.47;21.07;;;3.90;99.90;;;;;;4976289;28;20450;-64
2020/12/01 14:26:13;;;;;;;34.63;21.03;;;3.90;99.90;;;;;;4976221;28;20447;-62
2020/12/01 14:28:39;;;;;;;37.27;21.33;;;3.90;99.90;;;;;;4976075;28;20431;-63
2020/12/01 14:31:05;;;;;;;32.33;22.07;;;3.90;99.90;;;;;;4976916;28;20463;-62
2020/12/01 14:33:32;;;;;;;29.80;19.53;;;3.90;99.90;;;;;;4976344;28;20447;-64
2020/12/01 14:35:59;;;;;;;34.00;20.57;;;3.90;99.90;;;;;;4975997;28;20875;-63
2020/12/01 14:38:25;;;;;;;30.00;19.27;;;3.90;99.90;;;;;;4975768;28;20538;-63
2020/12/01 14:40:53;;;;;;;34.43;21.53;;;3.80;99.90;;;;;;4975716;28;20471;-63
2020/12/01 14:43:19;;;;;;;33.13;20.73;;;3.80;99.90;;;;;;4975932;28;20482;-63
2020/12/01 14:45:46;;;;;;;39.90;22.23;;;3.80;99.90;;;;;;4975620;28;20865;-64
2020/12/01 14:48:43;;;;;;;36.70;22.20;;;3.70;99.90;;;;;;4975554;28;20458;-64
2020/12/01 14:51:50;;;;;;;43.13;23.97;;;3.70;99.90;;;;;;4974518;28;20897;-63
2020/12/01 14:54:20;;;;;;;35.90;19.27;;;3.70;99.90;;;;;;4975552;28;20439;-62
2020/12/01 14:57:10;;;;;;;36.13;20.83;;;3.70;99.90;;;;;;4975571;28;20505;-64
2020/12/01 15:00:06;;;;;;;40.17;22.40;;;3.70;99.90;;;;;;4975285;28;20463;-63
2020/12/01 15:02:53;;;;;;;38.67;23.37;;;3.70;99.90;;;;;;4974543;28;20487;-63
2020/12/01 15:05:31;;;;;;;42.87;23.50;;;3.70;99.90;;;;;;4975120;28;20442;-62
2020/12/01 15:08:24;;;;;;;36.33;21.93;;;3.60;99.90;;;;;;4975038;28;20458;-62
2020/12/01 15:11:04;;;;;;;40.50;22.50;;;3.70;99.90;;;;;;4972314;28;20514;-64
2020/12/01 15:13:31;;;;;;;41.17;23.17;;;3.60;99.90;;;;;;4974806;28;20438;-63
2020/12/01 15:15:59;;;;;;;37.90;22.53;;;3.70;99.90;;;;;;4974861;28;20808;-63
2020/12/01 15:18:27;;;;;;;38.00;23.27;;;3.70;99.90;;;;;;4974699;28;20454;-63
2020/12/01 15:20:54;;;;;;;59.70;23.77;;;3.60;99.90;;;;;;4974654;28;20486;-63
2020/12/01 15:23:31;;;;;;;53.57;25.17;;;3.50;99.90;;;;;;4974667;28;20569;-63
2020/12/01 15:25:58;;;;;;;56.70;22.60;;;3.50;99.90;;;;;;4974441;28;20439;-63
2020/12/01 15:28:29;;;;;;;37.67;22.63;;;3.50;99.90;;;;;;4974777;28;20455;-63
2020/12/01 15:30:57;;;;;;;33.00;20.20;;;3.60;99.90;;;;;;4974759;28;20483;-63
2020/12/01 15:33:26;;;;;;;33.37;20.70;;;3.60;99.90;;;;;;4975576;28;20451;-63
2020/12/01 15:36:00;;;;;;;38.67;21.50;;;3.70;99.90;;;;;;4975275;28;20458;-63
2020/12/01 15:38:28;;;;;;;31.37;20.60;;;3.70;99.90;;;;;;4974568;28;20442;-64
2020/12/01 15:40:57;;;;;;;34.23;21.13;;;3.70;99.90;;;;;;4974673;28;20819;-62
2020/12/01 15:43:31;;;;;;;31.23;20.00;;;3.70;99.90;;;;;;4974237;28;20898;-64
2020/12/01 15:46:00;;;;;;;33.40;20.10;;;3.70;99.90;;;;;;4974663;28;20458;-62
2020/12/01 15:48:28;;;;;;;35.90;21.93;;;3.80;99.90;;;;;;4974265;28;20450;-62
2020/12/01 15:51:15;;;;;;;33.27;20.40;;;3.70;99.90;;;;;;4973939;28;20486;-65
2020/12/01 15:53:53;;;;;;;31.97;21.13;;;3.70;99.90;;;;;;4961885;28;20451;-63
2020/12/01 15:56:42;;;;;;;31.90;20.27;;;3.70;99.90;;;;;;4974370;28;20443;-63
2020/12/01 15:59:46;;;;;;;31.57;18.87;;;3.70;99.90;;;;;;4974473;28;20446;-63
2020/12/01 16:02:31;;;;;;;31.37;20.77;;;3.70;99.90;;;;;;4973786;28;20509;-64
2020/12/01 16:05:20;;;;;;;31.03;18.67;;;3.70;99.90;;;;;;4974897;28;20778;-63
2020/12/01 16:08:21;;;;;;;30.67;18.37;;;3.70;99.90;;;;;;4974423;28;20474;-64
2020/12/01 16:11:09;;;;;;;26.83;19.27;;;3.80;99.90;;;;;;4974019;28;20470;-63
2020/12/01 16:14:13;;;;;;;30.93;17.27;;;3.80;99.90;;;;;;4974315;28;20442;-63
2020/12/01 16:16:42;;;;;;;30.97;18.67;;;3.80;99.90;;;;;;4974030;28;20450;-63
2020/12/01 16:19:15;;;;;;;24.90;17.63;;;3.70;99.90;;;;;;4974082;28;20458;-63
2020/12/01 16:21:43;;;;;;;33.27;20.63;;;3.70;99.90;;;;;;4973865;28;20497;-62
2020/12/01 16:24:14;;;;;;;29.80;18.53;;;3.70;99.90;;;;;;4974105;28;20478;-62
2020/12/01 16:26:53;;;;;;;27.23;18.77;;;3.60;99.90;;;;;;4974418;28;20431;-63
2020/12/01 16:29:50;;;;;;;30.07;19.13;;;3.60;99.90;;;;;;4973889;28;20439;-62
2020/12/01 16:32:19;;;;;;;30.00;18.53;;;3.70;99.90;;;;;;4973918;28;20478;-62
2020/12/01 16:34:47;;;;;;;31.27;19.00;;;3.60;99.90;;;;;;4973736;28;20922;-63
2020/12/01 16:37:33;;;;;;;27.83;19.77;;;3.60;99.90;;;;;;4973900;28;20458;-63
2020/12/01 16:40:07;;;;;;;30.80;20.70;;;3.70;99.90;;;;;;4974053;28;20500;-64
2020/12/01 16:42:42;;;;;;;34.07;21.73;;;3.60;99.90;;;;;;4974222;28;20505;-63
2020/12/01 16:45:20;;;;;;;24.53;18.87;;;3.60;99.90;;;;;;4973407;28;20918;-63
2020/12/01 16:48:02;;;;;;;33.70;22.63;;;3.60;99.90;;;;;;4973711;28;20469;-63
2020/12/01 16:50:36;;;;;;;37.47;22.43;;;3.60;99.90;;;;;;4974152;28;20443;-63
2020/12/01 16:53:21;;;;;;;36.43;20.83;;;3.60;99.90;;;;;;4974181;28;20805;-63
2020/12/01 16:55:54;;;;;;;31.00;21.13;;;3.60;99.90;;;;;;4974070;28;20435;-63
2020/12/01 16:58:31;;;;;;;34.23;21.17;;;3.60;99.90;;;;;;4974257;28;20439;-63
2020/12/01 17:01:07;;;;;;;34.27;21.77;;;3.60;99.90;;;;;;4974475;28;20485;-63
2020/12/01 17:04:00;;;;;;;34.10;22.47;;;3.50;99.90;;;;;;4976112;28;20467;-64
2020/12/01 17:07:02;;;;;;;33.80;21.30;;;3.60;99.90;;;;;;4977682;28;20439;-64
2020/12/01 17:09:29;;;;;;;37.17;21.77;;;3.60;99.90;;;;;;4978323;28;20439;-63
2020/12/01 17:12:11;;;;;;;33.03;20.90;;;3.50;99.90;;;;;;4979195;28;20478;-63
2020/12/01 17:14:55;;;;;;;35.03;20.33;;;3.50;99.90;;;;;;4977058;28;20438;-62
2020/12/01 17:17:32;;;;;;;37.47;21.77;;;3.50;99.90;;;;;;4977916;28;20451;-63
2020/12/01 17:19:59;;;;;;;36.10;22.87;;;3.50;99.90;;;;;;4976984;28;20498;-62
2020/12/01 17:22:26;;;;;;;36.53;23.37;;;3.60;99.90;;;;;;4976771;28;20490;-63
2020/12/01 17:24:53;;;;;;;34.10;21.77;;;3.60;99.90;;;;;;4976894;28;20450;-63
2020/12/01 17:27:21;;;;;;;37.60;23.17;;;3.70;99.90;;;;;;4976459;28;20450;-64
2020/12/01 17:29:49;;;;;;;39.53;24.87;;;3.70;99.90;;;;;;4976734;28;20454;-63
2020/12/01 17:32:43;;;;;;;46.97;27.47;;;3.70;99.90;;;;;;4976393;28;20474;-63
2020/12/01 17:35:17;;;;;;;34.20;23.97;;;3.70;99.90;;;;;;4976690;28;20435;-64
2020/12/01 17:37:54;;;;;;;40.43;25.00;;;3.70;99.90;;;;;;4976684;28;20439;-63
2020/12/01 17:40:33;;;;;;;43.47;25.33;;;3.70;99.90;;;;;;4976355;28;20906;-63
2020/12/01 17:43:07;;;;;;;46.70;24.67;;;3.60;99.90;;;;;;4976422;28;20470;-63
2020/12/01 17:45:37;;;;;;;74.77;27.70;;;3.60;99.90;;;;;;4976520;28;20446;-63
2020/12/01 17:48:10;;;;;;;60.07;27.60;;;3.60;99.90;;;;;;4976303;28;20439;-62
2020/12/01 17:50:42;;;;;;;53.13;25.70;;;3.60;99.90;;;;;;4976279;28;20517;-64
2020/12/01 17:53:17;;;;;;;46.10;22.77;;;3.50;99.90;;;;;;4976382;28;20435;-63
2020/12/01 17:55:46;;;;;;;53.13;20.93;;;3.50;99.90;;;;;;4981077;28;20438;-63
2020/12/01 17:58:14;;;;;;;45.90;21.70;;;3.40;99.90;;;;;;4976347;28;20447;-64
2020/12/01 18:00:40;;;;;;;44.53;22.20;;;3.30;99.90;;;;;;4975956;28;20486;-64
2020/12/01 18:03:12;;;;;;;44.90;21.03;;;3.20;99.90;;;;;;4975947;28;20536;-63
2020/12/01 18:05:39;;;;;;;64.93;24.40;;;3.20;99.90;;;;;;4976558;28;20435;-63
2020/12/01 18:08:08;;;;;;;42.70;21.60;;;3.20;99.90;;;;;;4976435;28;20807;-64
2020/12/01 18:10:37;;;;;;;52.43;22.70;;;3.10;99.90;;;;;;4976502;28;20530;-63
2020/12/01 18:13:08;;;;;;;51.00;23.07;;;3.10;99.90;;;;;;4976523;28;20454;-64
2020/12/01 18:15:40;;;;;;;48.10;22.30;;;3.10;99.90;;;;;;4975682;28;20898;-62
2020/12/01 18:18:19;;;;;;;51.30;22.20;;;3.10;99.90;;;;;;4976478;28;20439;-64
2020/12/01 18:21:03;;;;;;;58.33;24.50;;;3.10;99.90;;;;;;4976568;28;20474;-63
2020/12/01 18:23:51;;;;;;;51.10;22.37;;;3.20;99.90;;;;;;4976237;28;20473;-63
2020/12/01 18:26:53;;;;;;;58.90;22.97;;;3.30;99.90;;;;;;4976232;28;20784;-65
2020/12/01 18:29:28;;;;;;;54.00;22.47;;;3.40;99.90;;;;;;4944735;28;20446;-63
2020/12/01 18:32:01;;;;;;;50.37;23.63;;;3.50;99.90;;;;;;4975945;28;20480;-64
2020/12/01 18:34:37;;;;;;;55.20;20.70;;;3.50;99.90;;;;;;4976238;28;20435;-63
2020/12/01 18:37:14;;;;;;;47.87;19.30;;;3.40;99.90;;;;;;4976443;28;20434;-64
2020/12/01 18:39:42;;;;;;;47.23;19.90;;;3.40;99.90;;;;;;4975831;28;20435;-63
2020/12/01 18:42:10;;;;;;;49.63;20.20;;;3.50;99.90;;;;;;4975870;28;20471;-62